Terminal Aerodrome Forecast
Issued by NWS Paducah, KY

Home | Current Version | Previous Version | Text Only | Print | Product List | Glossary On
Versions: 1 2 3 4 5 6 7 8 9 10 11 12 13 14 15 16 17 18 19
706
FTUS43 KPAH 261126
TAFPAH
TAF
KPAH 261126Z 2612/2712 VRB04KT P6SM SCT015 BKN050
      TEMPO 2612/2616 BKN012
     FM261600 23010G17KT P6SM BKN035
     FM270000 17003KT P6SM SCT040 BKN250=

USA.gov is the U.S. government's official web portal to all federal, state and local government web resources and services.